Time;durP1;ratioP1;P1;durP2;ratioP2;P2;SDS_P1;SDS_P2;PMS_P1;PMS_P2;Temp;Humidity;BMP_temperature;BMP_pressure;BME280_temperature;BME280_humidity;BME280_pressure;Samples;Min_cycle;Max_cycle;Signal;HPM_P1;HPM_P2
2021/12/31 00:01:19;;;;;;;5.03;1.20;;;;;;;;;;5072347;28;20025;-66
2021/12/31 00:03:45;;;;;;;5.32;1.00;;;;;;;;;;5073068;28;20036;-66
2021/12/31 00:06:11;;;;;;;7.28;1.20;;;;;;;;;;5056285;28;20460;-64
2021/12/31 00:08:37;;;;;;;4.13;1.20;;;;;;;;;;5026895;28;20064;-66
2021/12/31 00:11:10;;;;;;;3.40;1.25;;;;;;;;;;5035068;28;20082;-65
2021/12/31 00:13:36;;;;;;;5.40;1.27;;;;;;;;;;5052934;28;20079;-65
2021/12/31 00:16:02;;;;;;;5.18;1.30;;;;;;;;;;5052663;28;20110;-65
2021/12/31 00:18:44;;;;;;;5.05;1.15;;;;;;;;;;5036150;28;20072;-65
2021/12/31 00:21:10;;;;;;;3.20;1.30;;;;;;;;;;5055104;28;20029;-65
2021/12/31 00:23:36;;;;;;;6.90;1.33;;;;;;;;;;5053114;28;20025;-65
2021/12/31 00:26:02;;;;;;;9.27;1.20;;;;;;;;;;5052982;28;20183;-64
2021/12/31 00:28:28;;;;;;;5.50;1.33;;;;;;;;;;5047547;28;20020;-65
2021/12/31 00:30:55;;;;;;;5.00;1.25;;;;;;;;;;5092934;28;20028;-66
2021/12/31 00:33:27;;;;;;;10.90;1.55;;;;;;;;;;5093652;28;20028;-65
2021/12/31 00:35:53;;;;;;;9.68;1.20;;;;;;;;;;5087500;28;20025;-65
2021/12/31 00:38:20;;;;;;;9.10;1.67;;;;;;;;;;5073762;28;20087;-65
2021/12/31 00:40:46;;;;;;;5.22;1.17;;;;;;;;;;5073975;28;20025;-65
2021/12/31 00:43:12;;;;;;;9.13;1.40;;;;;;;;;;5072622;28;20033;-66
2021/12/31 00:45:40;;;;;;;3.38;1.23;;;;;;;;;;5074417;28;20665;-65
2021/12/31 00:48:10;;;;;;;4.28;0.85;;;;;;;;;;5077201;28;20035;-65
2021/12/31 00:50:37;;;;;;;10.93;1.20;;;;;;;;;;5059867;28;20086;-67
2021/12/31 00:53:03;;;;;;;5.72;1.00;;;;;;;;;;5059237;28;20430;-65
2021/12/31 00:55:29;;;;;;;4.60;1.10;;;;;;;;;;5057746;28;20463;-65
2021/12/31 00:57:55;;;;;;;5.85;0.95;;;;;;;;;;5058198;28;20020;-66
2021/12/31 01:00:21;;;;;;;5.70;0.95;;;;;;;;;;5075921;28;20111;-65
2021/12/31 01:02:49;;;;;;;2.65;0.90;;;;;;;;;;5058798;28;20464;-65
2021/12/31 01:05:16;;;;;;;6.25;1.00;;;;;;;;;;5059073;28;20767;-65
2021/12/31 01:07:43;;;;;;;5.30;1.10;;;;;;;;;;5058975;28;20390;-66
2021/12/31 01:10:12;;;;;;;3.55;1.00;;;;;;;;;;5074921;28;20036;-65
2021/12/31 01:12:38;;;;;;;3.22;0.90;;;;;;;;;;5057875;28;20032;-65
2021/12/31 01:15:09;;;;;;;3.05;0.73;;;;;;;;;;5075346;28;20446;-65
2021/12/31 01:18:27;;;;;;;7.18;1.13;;;;;;;;;;5075323;28;20367;-66
2021/12/31 01:20:22;;;;;;;4.03;1.00;;;;;;;;;;5065203;28;20033;-65
2021/12/31 01:22:48;;;;;;;4.95;0.80;;;;;;;;;;5076311;28;20078;-64
2021/12/31 01:25:15;;;;;;;3.17;0.88;;;;;;;;;;5075344;28;20051;-65
2021/12/31 01:27:42;;;;;;;4.47;1.17;;;;;;;;;;5057050;28;20072;-65
2021/12/31 01:30:09;;;;;;;5.00;0.90;;;;;;;;;;5089948;28;20035;-65
2021/12/31 01:32:36;;;;;;;4.43;1.27;;;;;;;;;;5096723;28;20111;-64
2021/12/31 01:35:05;;;;;;;6.72;1.00;;;;;;;;;;5078394;28;20024;-65
2021/12/31 01:37:31;;;;;;;7.68;0.90;;;;;;;;;;5095359;28;20506;-65
2021/12/31 01:39:57;;;;;;;4.13;1.00;;;;;;;;;;5095260;28;20024;-65
2021/12/31 01:42:30;;;;;;;6.22;1.13;;;;;;;;;;5062497;28;20021;-65
2021/12/31 01:45:00;;;;;;;3.75;1.15;;;;;;;;;;5055098;28;20055;-65
2021/12/31 01:47:34;;;;;;;9.98;1.10;;;;;;;;;;5054735;28;20041;-65
2021/12/31 01:50:07;;;;;;;2.03;0.95;;;;;;;;;;5055904;28;20124;-66
2021/12/31 01:52:34;;;;;;;4.07;1.20;;;;;;;;;;5054673;28;20021;-66
2021/12/31 01:55:00;;;;;;;2.50;0.65;;;;;;;;;;5074870;28;20056;-65
2021/12/31 01:57:27;;;;;;;2.63;0.82;;;;;;;;;;5073920;28;20035;-65
2021/12/31 01:59:53;;;;;;;1.95;0.70;;;;;;;;;;5074216;28;20025;-65
2021/12/31 02:02:19;;;;;;;5.75;1.00;;;;;;;;;;5074619;28;20040;-66
2021/12/31 02:04:46;;;;;;;4.75;0.77;;;;;;;;;;5076090;28;20024;-66
2021/12/31 02:07:12;;;;;;;3.70;0.80;;;;;;;;;;5070644;28;20063;-66
2021/12/31 02:09:45;;;;;;;3.70;0.75;;;;;;;;;;5074708;28;20036;-66
2021/12/31 02:12:11;;;;;;;3.33;0.90;;;;;;;;;;5056566;28;20036;-66
2021/12/31 02:14:38;;;;;;;2.55;0.88;;;;;;;;;;5074872;28;20029;-66
2021/12/31 02:17:07;;;;;;;4.35;0.85;;;;;;;;;;5056782;28;20024;-66
2021/12/31 02:20:06;;;;;;;4.65;0.90;;;;;;;;;;5077196;28;20101;-66
2021/12/31 02:22:43;;;;;;;5.15;1.00;;;;;;;;;;5075831;28;20020;-65
2021/12/31 02:25:10;;;;;;;7.35;0.88;;;;;;;;;;5074539;28;20037;-65
2021/12/31 02:27:37;;;;;;;12.10;0.93;;;;;;;;;;5074727;28;20360;-66
2021/12/31 02:30:04;;;;;;;10.18;1.10;;;;;;;;;;5088648;28;20036;-66
2021/12/31 02:32:30;;;;;;;12.40;1.10;;;;;;;;;;5094735;28;20028;-66
2021/12/31 02:34:56;;;;;;;12.00;1.00;;;;;;;;;;5076321;28;20483;-66
2021/12/31 02:37:22;;;;;;;3.67;1.08;;;;;;;;;;5094101;28;20022;-65
2021/12/31 02:39:48;;;;;;;2.58;0.77;;;;;;;;;;5084707;28;20099;-65
2021/12/31 02:42:14;;;;;;;4.82;1.00;;;;;;;;;;5070615;28;20111;-67
2021/12/31 02:44:42;;;;;;;3.70;0.98;;;;;;;;;;5072144;28;20104;-66
2021/12/31 02:47:08;;;;;;;5.95;0.90;;;;;;;;;;5073054;28;20028;-65
2021/12/31 02:49:38;;;;;;;7.25;0.90;;;;;;;;;;5056257;28;20040;-66
2021/12/31 02:52:04;;;;;;;3.53;0.90;;;;;;;;;;5073597;28;20066;-66
2021/12/31 02:54:30;;;;;;;4.60;0.93;;;;;;;;;;5055852;28;20024;-65
2021/12/31 02:56:57;;;;;;;4.03;1.00;;;;;;;;;;5073145;28;20029;-65
2021/12/31 02:59:23;;;;;;;3.00;0.85;;;;;;;;;;5073679;28;20033;-65
2021/12/31 03:01:50;;;;;;;1.23;0.70;;;;;;;;;;5073244;28;20104;-65
2021/12/31 03:04:16;;;;;;;2.78;0.80;;;;;;;;;;5074152;28;20021;-66
2021/12/31 03:06:43;;;;;;;3.25;0.93;;;;;;;;;;5074168;28;20095;-67
2021/12/31 03:09:10;;;;;;;3.75;1.00;;;;;;;;;;5055082;28;20033;-68
2021/12/31 03:11:37;;;;;;;7.30;0.68;;;;;;;;;;5073085;28;20025;-67
2021/12/31 03:14:03;;;;;;;6.50;1.25;;;;;;;;;;5073372;28;20020;-68
2021/12/31 03:16:29;;;;;;;3.60;0.70;;;;;;;;;;5054839;28;20028;-68
2021/12/31 03:18:56;;;;;;;6.40;0.90;;;;;;;;;;5055958;28;20119;-65
2021/12/31 03:21:22;;;;;;;3.70;0.93;;;;;;;;;;5072795;28;20510;-66
2021/12/31 03:23:50;;;;;;;5.35;0.90;;;;;;;;;;5073388;28;20353;-67
2021/12/31 03:26:16;;;;;;;4.82;1.10;;;;;;;;;;5072662;28;20098;-68
2021/12/31 03:28:42;;;;;;;4.63;0.95;;;;;;;;;;5075746;28;20028;-68
2021/12/31 03:31:08;;;;;;;2.53;0.80;;;;;;;;;;5074514;28;20479;-66
2021/12/31 03:33:34;;;;;;;1.35;0.70;;;;;;;;;;5076733;28;20396;-66
2021/12/31 03:36:00;;;;;;;13.60;2.60;;;;;;;;;;5078551;28;20036;-66
2021/12/31 03:38:26;;;;;;;2.28;0.90;;;;;;;;;;5073045;28;20035;-66
2021/12/31 03:40:53;;;;;;;5.68;0.75;;;;;;;;;;5055863;28;20375;-66
2021/12/31 03:43:19;;;;;;;2.90;0.85;;;;;;;;;;5073296;28;20060;-66
2021/12/31 03:45:46;;;;;;;1.27;0.68;;;;;;;;;;5072714;28;20059;-65
2021/12/31 03:48:12;;;;;;;5.13;0.88;;;;;;;;;;5072759;28;20050;-65
2021/12/31 03:50:39;;;;;;;9.23;1.20;;;;;;;;;;5080922;28;20040;-65
2021/12/31 03:53:05;;;;;;;3.67;1.00;;;;;;;;;;5052397;28;20028;-65
2021/12/31 03:55:31;;;;;;;13.73;1.00;;;;;;;;;;5052486;28;20021;-66
2021/12/31 03:57:57;;;;;;;4.10;1.08;;;;;;;;;;5034783;28;20025;-65
2021/12/31 04:00:23;;;;;;;4.35;0.80;;;;;;;;;;5063467;28;20073;-66
2021/12/31 04:02:49;;;;;;;9.55;1.00;;;;;;;;;;5072954;28;20032;-68
2021/12/31 04:05:15;;;;;;;8.68;0.70;;;;;;;;;;5074329;28;20025;-69
2021/12/31 04:07:41;;;;;;;3.13;0.90;;;;;;;;;;5072875;28;20028;-68
2021/12/31 04:10:07;;;;;;;8.70;0.95;;;;;;;;;;5072649;28;20041;-69
2021/12/31 04:12:33;;;;;;;2.60;0.80;;;;;;;;;;5072985;28;20078;-67
2021/12/31 04:14:59;;;;;;;3.42;0.77;;;;;;;;;;5073102;28;20060;-68
2021/12/31 04:17:25;;;;;;;1.55;0.60;;;;;;;;;;5072499;28;20024;-66
2021/12/31 04:19:55;;;;;;;2.35;0.82;;;;;;;;;;5073265;28;20047;-65
2021/12/31 04:22:24;;;;;;;1.73;0.70;;;;;;;;;;5076231;28;20019;-65
2021/12/31 04:27:16;;;;;;;3.63;0.73;;;;;;;;;;5077420;28;20120;-65
2021/12/31 04:29:49;;;;;;;1.98;0.80;;;;;;;;;;5088012;28;20043;-65
2021/12/31 04:32:15;;;;;;;13.63;1.25;;;;;;;;;;5096203;28;20035;-65
2021/12/31 04:34:41;;;;;;;2.15;0.80;;;;;;;;;;5097577;28;20039;-65
2021/12/31 04:37:07;;;;;;;3.88;1.15;;;;;;;;;;5093602;28;20028;-66
2021/12/31 04:39:33;;;;;;;2.45;0.82;;;;;;;;;;5076412;28;20028;-66
2021/12/31 04:41:59;;;;;;;2.30;0.77;;;;;;;;;;5076372;28;20032;-65
2021/12/31 04:44:26;;;;;;;2.40;0.82;;;;;;;;;;5075974;28;20029;-66
2021/12/31 04:46:52;;;;;;;1.92;0.80;;;;;;;;;;5076104;28;20082;-66
2021/12/31 04:49:20;;;;;;;2.88;0.80;;;;;;;;;;5076298;28;20025;-66
2021/12/31 04:51:46;;;;;;;7.50;1.73;;;;;;;;;;5076137;28;20039;-66
2021/12/31 04:54:16;;;;;;;1.98;0.70;;;;;;;;;;5057614;28;20020;-65
2021/12/31 04:56:43;;;;;;;1.92;0.82;;;;;;;;;;5075157;28;20032;-65
2021/12/31 04:59:09;;;;;;;7.88;0.70;;;;;;;;;;5075980;28;20056;-65
2021/12/31 05:01:35;;;;;;;1.85;0.80;;;;;;;;;;5075495;28;20757;-65
2021/12/31 05:04:05;;;;;;;3.17;0.90;;;;;;;;;;5076431;28;20052;-65
2021/12/31 05:06:31;;;;;;;2.47;0.77;;;;;;;;;;5057736;28;20060;-65
2021/12/31 05:08:57;;;;;;;2.97;0.90;;;;;;;;;;5057413;28;20073;-65
2021/12/31 05:11:23;;;;;;;1.63;0.80;;;;;;;;;;5075504;28;20036;-65
2021/12/31 05:13:49;;;;;;;3.30;0.80;;;;;;;;;;5057594;28;20471;-65
2021/12/31 05:16:15;;;;;;;1.50;0.80;;;;;;;;;;5075354;28;20056;-66
2021/12/31 05:18:41;;;;;;;2.72;0.77;;;;;;;;;;5075820;28;20059;-65
2021/12/31 05:21:07;;;;;;;1.33;0.75;;;;;;;;;;5075608;28;20024;-65
2021/12/31 05:23:33;;;;;;;2.03;0.88;;;;;;;;;;5075632;28;20029;-70
2021/12/31 05:25:59;;;;;;;1.48;0.70;;;;;;;;;;5056953;28;20170;-65
2021/12/31 05:28:25;;;;;;;3.15;0.70;;;;;;;;;;5074891;28;20467;-66
2021/12/31 05:30:51;;;;;;;3.05;0.88;;;;;;;;;;5094809;28;20495;-66
2021/12/31 05:33:21;;;;;;;3.22;0.90;;;;;;;;;;5095292;28;20028;-67
2021/12/31 05:35:47;;;;;;;4.47;1.10;;;;;;;;;;5096122;28;20028;-66
2021/12/31 05:38:13;;;;;;;2.70;0.88;;;;;;;;;;5095133;28;20123;-65
2021/12/31 05:40:39;;;;;;;9.48;1.23;;;;;;;;;;5095251;28;20024;-66
2021/12/31 05:43:05;;;;;;;8.20;0.75;;;;;;;;;;5094918;28;20440;-66
2021/12/31 05:45:31;;;;;;;4.75;0.88;;;;;;;;;;5088296;28;20029;-65
2021/12/31 05:47:57;;;;;;;13.00;0.80;;;;;;;;;;5076425;28;20021;-66
2021/12/31 05:50:29;;;;;;;5.75;0.70;;;;;;;;;;5054327;28;20043;-65
2021/12/31 05:52:59;;;;;;;9.30;1.00;;;;;;;;;;5075044;28;20031;-65
2021/12/31 05:55:25;;;;;;;17.05;1.10;;;;;;;;;;5074673;28;20029;-67
2021/12/31 05:57:51;;;;;;;10.45;1.00;;;;;;;;;;5053992;28;20037;-66
2021/12/31 06:00:18;;;;;;;13.43;0.80;;;;;;;;;;5051893;28;20506;-66
2021/12/31 06:02:47;;;;;;;18.33;0.98;;;;;;;;;;5070303;28;20086;-66
2021/12/31 06:05:13;;;;;;;10.07;1.10;;;;;;;;;;5074168;28;20131;-66
2021/12/31 06:07:39;;;;;;;8.65;0.90;;;;;;;;;;5073760;28;20017;-66
2021/12/31 06:10:05;;;;;;;4.63;1.10;;;;;;;;;;5074202;28;20101;-66
2021/12/31 06:12:31;;;;;;;5.90;0.90;;;;;;;;;;5073941;28;20588;-66
2021/12/31 06:15:01;;;;;;;6.78;0.88;;;;;;;;;;5074225;28;20089;-66
2021/12/31 06:17:28;;;;;;;6.22;0.98;;;;;;;;;;5073759;28;20033;-65
2021/12/31 06:19:54;;;;;;;3.38;0.93;;;;;;;;;;5056220;28;20028;-65
2021/12/31 06:22:24;;;;;;;7.28;1.05;;;;;;;;;;5056133;28;20021;-65
2021/12/31 06:24:50;;;;;;;4.63;0.85;;;;;;;;;;5074006;28;20044;-65
2021/12/31 06:27:16;;;;;;;8.27;0.82;;;;;;;;;;5072201;28;20071;-66
2021/12/31 06:29:42;;;;;;;4.25;1.02;;;;;;;;;;5077350;28;20032;-65
2021/12/31 06:32:11;;;;;;;10.20;0.93;;;;;;;;;;5075947;28;20474;-65
2021/12/31 06:34:37;;;;;;;7.18;1.27;;;;;;;;;;5084267;28;20028;-66
2021/12/31 06:37:03;;;;;;;3.92;0.77;;;;;;;;;;5073197;28;20163;-67
2021/12/31 06:39:29;;;;;;;5.47;0.95;;;;;;;;;;5073501;28;20468;-66
2021/12/31 06:41:55;;;;;;;13.75;0.98;;;;;;;;;;5073950;28;20813;-66
2021/12/31 06:44:21;;;;;;;6.70;1.15;;;;;;;;;;5073613;28;20032;-66
2021/12/31 06:46:47;;;;;;;12.75;0.90;;;;;;;;;;5073652;28;20032;-66
2021/12/31 06:49:13;;;;;;;3.20;0.80;;;;;;;;;;5074741;28;20032;-66
2021/12/31 06:51:39;;;;;;;6.72;1.17;;;;;;;;;;5074370;28;20039;-66
2021/12/31 06:54:05;;;;;;;8.52;0.93;;;;;;;;;;5055751;28;20025;-66
2021/12/31 06:56:31;;;;;;;11.60;1.05;;;;;;;;;;5073622;28;20036;-65
2021/12/31 06:58:57;;;;;;;3.60;0.80;;;;;;;;;;5073754;28;20037;-65
2021/12/31 07:01:24;;;;;;;4.32;0.80;;;;;;;;;;5073384;28;20104;-66
2021/12/31 07:03:50;;;;;;;6.85;0.90;;;;;;;;;;5057800;28;20029;-66
2021/12/31 07:06:16;;;;;;;5.20;0.90;;;;;;;;;;5051033;28;20036;-69
2021/12/31 07:08:42;;;;;;;14.15;0.95;;;;;;;;;;5058049;28;20086;-67
2021/12/31 07:11:08;;;;;;;18.42;1.10;;;;;;;;;;5057608;28;20033;-67
2021/12/31 07:13:35;;;;;;;15.30;1.20;;;;;;;;;;5073323;28;20039;-67
2021/12/31 07:16:02;;;;;;;18.08;1.40;;;;;;;;;;5055487;28;20021;-68
2021/12/31 07:18:28;;;;;;;8.90;1.08;;;;;;;;;;5074447;28;20028;-67
2021/12/31 07:20:54;;;;;;;9.68;1.13;;;;;;;;;;5056057;28;20109;-67
2021/12/31 07:23:20;;;;;;;14.90;0.90;;;;;;;;;;5073687;28;20020;-67
2021/12/31 07:25:47;;;;;;;8.35;1.45;;;;;;;;;;5073579;28;20079;-67
2021/12/31 07:28:14;;;;;;;6.78;1.08;;;;;;;;;;5055252;28;20070;-67
2021/12/31 07:30:41;;;;;;;12.93;1.23;;;;;;;;;;5074664;28;20399;-69
2021/12/31 07:33:07;;;;;;;18.33;0.98;;;;;;;;;;5076961;28;20028;-66
2021/12/31 07:35:33;;;;;;;18.50;1.00;;;;;;;;;;5094841;28;20054;-67
2021/12/31 07:37:59;;;;;;;10.82;0.90;;;;;;;;;;5089196;28;20070;-67
2021/12/31 07:40:48;;;;;;;9.20;1.30;;;;;;;;;;5073235;28;20027;-66
2021/12/31 07:43:13;;;;;;;17.30;1.50;;;;;;;;;;5072124;28;20029;-67
2021/12/31 07:45:39;;;;;;;5.40;1.00;;;;;;;;;;5054831;28;20049;-66
2021/12/31 07:48:11;;;;;;;15.93;1.50;;;;;;;;;;5074296;28;20113;-67
2021/12/31 07:50:38;;;;;;;12.98;1.17;;;;;;;;;;5072795;28;20515;-67
2021/12/31 07:53:07;;;;;;;27.45;1.23;;;;;;;;;;5072211;28;20533;-67
2021/12/31 07:55:34;;;;;;;13.07;1.13;;;;;;;;;;5053213;28;20037;-68
2021/12/31 07:58:00;;;;;;;15.90;1.50;;;;;;;;;;5054330;28;20521;-68
2021/12/31 08:00:26;;;;;;;17.65;1.00;;;;;;;;;;5054402;28;20056;-68
2021/12/31 08:02:54;;;;;;;10.57;1.20;;;;;;;;;;5054713;28;20028;-68
2021/12/31 08:05:20;;;;;;;12.93;1.20;;;;;;;;;;5073282;28;20021;-66
2021/12/31 08:07:46;;;;;;;11.57;1.35;;;;;;;;;;5054437;28;20032;-67
2021/12/31 08:10:12;;;;;;;7.50;0.95;;;;;;;;;;5072207;28;20036;-66
2021/12/31 08:12:38;;;;;;;7.75;1.23;;;;;;;;;;5072342;28;20498;-67
2021/12/31 08:15:05;;;;;;;9.57;0.80;;;;;;;;;;5072274;28;20040;-67
2021/12/31 08:17:31;;;;;;;10.27;1.25;;;;;;;;;;5071926;28;20074;-66
2021/12/31 08:19:59;;;;;;;13.02;1.15;;;;;;;;;;5055231;28;20448;-68
2021/12/31 08:22:26;;;;;;;15.23;0.95;;;;;;;;;;5055411;28;20077;-66
2021/12/31 08:24:52;;;;;;;9.05;0.82;;;;;;;;;;5054150;28;20142;-66
2021/12/31 08:27:18;;;;;;;6.53;0.98;;;;;;;;;;5070406;28;20028;-67
2021/12/31 08:29:44;;;;;;;14.13;1.15;;;;;;;;;;5053671;28;20109;-66
2021/12/31 08:32:13;;;;;;;15.73;1.48;;;;;;;;;;5072137;28;20450;-67
2021/12/31 08:34:39;;;;;;;10.85;0.93;;;;;;;;;;5074736;28;20060;-68
2021/12/31 08:37:05;;;;;;;5.80;0.90;;;;;;;;;;5055158;28;20016;-67
2021/12/31 08:39:31;;;;;;;11.13;0.93;;;;;;;;;;5072492;28;20408;-67
2021/12/31 08:41:57;;;;;;;4.72;1.00;;;;;;;;;;5071839;28;20024;-67
2021/12/31 08:44:23;;;;;;;1.77;0.80;;;;;;;;;;5069045;28;20069;-67
2021/12/31 08:46:49;;;;;;;8.10;1.00;;;;;;;;;;5074852;28;20141;-67
2021/12/31 08:49:16;;;;;;;5.05;1.17;;;;;;;;;;5093302;28;20036;-66
2021/12/31 08:51:41;;;;;;;9.85;1.05;;;;;;;;;;5083583;28;20482;-67
2021/12/31 08:54:08;;;;;;;7.60;1.00;;;;;;;;;;5071601;28;20506;-66
2021/12/31 08:56:34;;;;;;;13.50;1.05;;;;;;;;;;5054193;28;20113;-67
2021/12/31 08:59:00;;;;;;;16.73;1.48;;;;;;;;;;5052590;28;20063;-68
2021/12/31 09:01:26;;;;;;;17.42;1.05;;;;;;;;;;5069375;28;20146;-68
2021/12/31 09:03:52;;;;;;;11.80;1.23;;;;;;;;;;5072609;28;20033;-71
2021/12/31 10:33:57;;;;;;;3.47;1.10;;;;;;;;;;4971877;23;20066;-71
2021/12/31 10:36:35;;;;;;;3.60;1.30;;;;;;;;;;4843092;29;20050;-72
2021/12/31 10:39:03;;;;;;;6.03;1.35;;;;;;;;;;4861249;29;20034;-70
2021/12/31 10:41:29;;;;;;;4.18;1.23;;;;;;;;;;4858098;29;20022;-70
2021/12/31 10:43:57;;;;;;;5.75;1.25;;;;;;;;;;4842529;29;20037;-70
2021/12/31 10:46:23;;;;;;;2.95;1.00;;;;;;;;;;4842627;29;20121;-70
2021/12/31 10:48:51;;;;;;;2.45;1.02;;;;;;;;;;4842215;29;20117;-70
2021/12/31 10:51:35;;;;;;;6.22;1.30;;;;;;;;;;4845669;29;20061;-70
2021/12/31 10:54:29;;;;;;;11.00;1.70;;;;;;;;;;4842492;29;20030;-68
2021/12/31 10:56:56;;;;;;;7.10;1.75;;;;;;;;;;4842422;29;20033;-70
2021/12/31 10:59:23;;;;;;;14.20;1.63;;;;;;;;;;4838562;29;20038;-71
2021/12/31 11:01:49;;;;;;;9.32;1.55;;;;;;;;;;4841493;29;20037;-70
2021/12/31 11:04:20;;;;;;;8.25;1.65;;;;;;;;;;4841682;29;20041;-70
2021/12/31 11:06:49;;;;;;;2.92;1.20;;;;;;;;;;4841924;29;20034;-70
2021/12/31 11:09:16;;;;;;;6.85;1.65;;;;;;;;;;4824672;29;20038;-69
2021/12/31 11:11:43;;;;;;;7.38;1.40;;;;;;;;;;4824522;29;20399;-70
2021/12/31 11:14:10;;;;;;;4.88;1.30;;;;;;;;;;4824702;29;20023;-70
2021/12/31 11:16:39;;;;;;;2.33;1.50;;;;;;;;;;4824695;29;20034;-70
2021/12/31 11:19:05;;;;;;;2.63;1.20;;;;;;;;;;4824435;29;20118;-69
2021/12/31 11:21:32;;;;;;;5.57;1.50;;;;;;;;;;4824433;29;20030;-71
2021/12/31 11:24:18;;;;;;;5.88;1.58;;;;;;;;;;4842950;29;20030;-71
2021/12/31 11:26:44;;;;;;;5.90;1.30;;;;;;;;;;4842030;29;20100;-70
2021/12/31 11:29:16;;;;;;;2.78;1.42;;;;;;;;;;4831858;29;20042;-70
2021/12/31 11:31:42;;;;;;;6.50;1.55;;;;;;;;;;4824373;29;20117;-70
2021/12/31 11:34:10;;;;;;;6.13;1.60;;;;;;;;;;4824250;29;20087;-68
2021/12/31 11:36:51;;;;;;;7.30;1.52;;;;;;;;;;4824628;29;20048;-71
2021/12/31 11:39:23;;;;;;;4.07;1.55;;;;;;;;;;4823961;29;20057;-68
2021/12/31 11:41:51;;;;;;;4.38;1.70;;;;;;;;;;4824189;29;20032;-69
2021/12/31 11:44:25;;;;;;;2.22;1.23;;;;;;;;;;4826019;29;20034;-70
2021/12/31 11:46:51;;;;;;;6.18;1.75;;;;;;;;;;4804906;29;20054;-70
2021/12/31 11:49:31;;;;;;;7.18;1.42;;;;;;;;;;4806884;29;20505;-69
2021/12/31 11:51:59;;;;;;;20.80;2.47;;;;;;;;;;4856114;23;20059;-70
2021/12/31 11:54:29;;;;;;;5.45;1.70;;;;;;;;;;4859994;29;20026;-71
2021/12/31 11:56:59;;;;;;;9.40;1.85;;;;;;;;;;4859158;29;20057;-73
2021/12/31 11:59:34;;;;;;;5.38;1.90;;;;;;;;;;4860908;29;20123;-72
2021/12/31 12:02:17;;;;;;;9.07;1.55;;;;;;;;;;4861069;29;20053;-70
2021/12/31 12:05:08;;;;;;;5.88;2.08;;;;;;;;;;4858463;29;20037;-70
2021/12/31 12:07:46;;;;;;;4.93;1.80;;;;;;;;;;4861195;29;20034;-70
2021/12/31 12:10:24;;;;;;;6.82;2.25;;;;;;;;;;4860851;29;20037;-70
2021/12/31 12:12:57;;;;;;;6.50;1.73;;;;;;;;;;4861851;29;20091;-70
2021/12/31 12:15:29;;;;;;;6.78;1.85;;;;;;;;;;4876537;29;20031;-69
2021/12/31 12:17:59;;;;;;;8.43;2.08;;;;;;;;;;4882635;29;20069;-69
2021/12/31 12:20:34;;;;;;;4.28;1.73;;;;;;;;;;4864759;29;20477;-69
2021/12/31 12:23:03;;;;;;;5.95;2.10;;;;;;;;;;4863439;29;20017;-70
2021/12/31 12:25:55;;;;;;;5.63;1.88;;;;;;;;;;4862962;29;20036;-71
2021/12/31 12:28:58;;;;;;;7.20;1.98;;;;;;;;;;4881410;29;20041;-71
2021/12/31 12:31:24;;;;;;;;;;;;;;;;;;4858035;29;20026;-70
2021/12/31 12:34:10;;;;;;;10.10;2.22;;;;;;;;;;4865352;29;19912;-69
2021/12/31 12:36:45;;;;;;;6.60;1.95;;;;;;;;;;4848180;29;20049;-69
2021/12/31 12:39:12;;;;;;;9.25;2.20;;;;;;;;;;4869739;29;20033;-69
2021/12/31 12:41:44;;;;;;;10.43;2.13;;;;;;;;;;4867414;29;20033;-70
2021/12/31 12:44:10;;;;;;;6.53;1.80;;;;;;;;;;4852609;29;20078;-71
2021/12/31 12:46:46;;;;;;;9.65;2.20;;;;;;;;;;4866233;29;20053;-70
2021/12/31 12:49:31;;;;;;;;;;;;;;;;;;;;;
2021/12/31 12:52:10;;;;;;;8.23;2.00;;;;;;;;;;4871298;29;20588;-68
2021/12/31 12:55:01;;;;;;;6.55;2.22;;;;;;;;;;4863803;29;20046;-71
2021/12/31 12:57:27;;;;;;;11.00;2.22;;;;;;;;;;4863056;29;20030;-69
2021/12/31 12:59:53;;;;;;;13.43;2.63;;;;;;;;;;4863435;29;20046;-69
2021/12/31 13:02:38;;;;;;;6.90;2.10;;;;;;;;;;4863497;29;20037;-72
2021/12/31 13:05:22;;;;;;;9.30;2.25;;;;;;;;;;4863838;29;20331;-71
2021/12/31 13:07:55;;;;;;;8.77;2.22;;;;;;;;;;4864120;29;20104;-70
2021/12/31 13:10:21;;;;;;;;;;;;;;;;;;4863874;29;20491;-72
2021/12/31 13:12:50;;;;;;;12.77;2.45;;;;;;;;;;4863180;29;20006;-70
2021/12/31 13:15:16;;;;;;;9.90;2.30;;;;;;;;;;4863355;29;20034;-71
2021/12/31 13:17:55;;;;;;;12.57;2.75;;;;;;;;;;4863225;29;20033;-70
2021/12/31 13:20:24;;;;;;;16.60;2.88;;;;;;;;;;4863454;29;20046;-69
2021/12/31 13:23:19;;;;;;;7.30;2.72;;;;;;;;;;4863174;29;20044;-72
2021/12/31 13:26:08;;;;;;;12.95;2.90;;;;;;;;;;4855070;29;20042;-72
2021/12/31 13:28:40;;;;;;;10.43;2.78;;;;;;;;;;4862804;29;20102;-72
2021/12/31 13:31:08;;;;;;;13.30;2.92;;;;;;;;;;4863050;29;20045;-70
2021/12/31 13:33:55;;;;;;;11.73;2.40;;;;;;;;;;4862797;29;20041;-73
2021/12/31 13:37:02;;;;;;;20.38;3.25;;;;;;;;;;4861812;29;20025;-71
2021/12/31 13:39:39;;;;;;;7.70;2.42;;;;;;;;;;4823464;29;20046;-71
2021/12/31 13:42:10;;;;;;;14.63;2.65;;;;;;;;;;4803315;29;20057;-70
2021/12/31 13:44:40;;;;;;;11.82;2.83;;;;;;;;;;4790670;29;20041;-70
2021/12/31 13:47:12;;;;;;;9.88;2.90;;;;;;;;;;4817774;29;20050;-71
2021/12/31 13:49:58;;;;;;;17.00;3.00;;;;;;;;;;4850265;29;20029;-73
2021/12/31 13:52:34;;;;;;;9.50;3.00;;;;;;;;;;4943089;24;20061;-71
2021/12/31 13:55:04;;;;;;;10.70;2.67;;;;;;;;;;4843209;29;20049;-71
2021/12/31 13:57:31;;;;;;;10.98;2.80;;;;;;;;;;4842996;29;20091;-70
2021/12/31 14:00:08;;;;;;;12.63;3.00;;;;;;;;;;4843906;29;20121;-69
2021/12/31 14:02:35;;;;;;;9.35;2.60;;;;;;;;;;4843847;29;20026;-70
2021/12/31 14:05:02;;;;;;;14.75;2.83;;;;;;;;;;4844112;29;20038;-70
2021/12/31 14:07:32;;;;;;;11.88;2.70;;;;;;;;;;4844153;29;20517;-70
2021/12/31 14:09:59;;;;;;;10.25;2.85;;;;;;;;;;4844667;29;20030;-70
2021/12/31 14:12:25;;;;;;;11.27;2.42;;;;;;;;;;4844666;29;20086;-71
2021/12/31 14:14:51;;;;;;;14.10;3.05;;;;;;;;;;4844468;29;20037;-69
2021/12/31 14:17:17;;;;;;;24.40;2.65;;;;;;;;;;4844240;29;20503;-71
2021/12/31 14:19:43;;;;;;;9.98;2.67;;;;;;;;;;4844716;29;20030;-73
2021/12/31 14:24:42;;;;;;;9.82;2.35;;;;;;;;;;4857294;29;20466;-72
2021/12/31 14:27:08;;;;;;;9.85;2.53;;;;;;;;;;4862180;29;20034;-70
2021/12/31 14:29:35;;;;;;;11.32;2.67;;;;;;;;;;4862196;29;20077;-70
2021/12/31 14:32:02;;;;;;;13.05;2.83;;;;;;;;;;4862078;29;20032;-71
2021/12/31 14:34:40;;;;;;;9.93;2.33;;;;;;;;;;4862346;29;20181;-74
2021/12/31 14:40:01;;;;;;;12.90;2.90;;;;;;;;;;4857458;29;20044;-71
2021/12/31 14:42:29;;;;;;;10.52;2.78;;;;;;;;;;4845906;29;20034;-71
2021/12/31 14:44:56;;;;;;;11.25;3.67;;;;;;;;;;4843925;29;20642;-70
2021/12/31 14:47:22;;;;;;;5.82;2.15;;;;;;;;;;4843917;29;20121;-71
2021/12/31 14:50:01;;;;;;;10.77;2.97;;;;;;;;;;4843766;29;20105;-73
2021/12/31 14:52:50;;;;;;;16.90;2.72;;;;;;;;;;4844272;29;20030;-71
2021/12/31 14:55:16;;;;;;;12.30;2.90;;;;;;;;;;4843781;29;20094;-72
2021/12/31 14:57:43;;;;;;;10.40;2.95;;;;;;;;;;4843952;29;20030;-72
2021/12/31 15:00:10;;;;;;;13.00;3.05;;;;;;;;;;4843624;29;20030;-70
2021/12/31 15:02:50;;;;;;;12.82;2.75;;;;;;;;;;4843347;29;20037;-70
2021/12/31 15:05:25;;;;;;;18.40;2.83;;;;;;;;;;4842391;29;20033;-72
2021/12/31 15:07:53;;;;;;;11.50;3.17;;;;;;;;;;4841962;29;20045;-69
2021/12/31 15:10:19;;;;;;;10.93;2.97;;;;;;;;;;4843333;29;20046;-70
2021/12/31 15:12:45;;;;;;;9.52;2.95;;;;;;;;;;4843196;29;20026;-71
2021/12/31 15:15:11;;;;;;;11.07;3.17;;;;;;;;;;4841855;29;20089;-69
2021/12/31 15:17:38;;;;;;;15.20;3.50;;;;;;;;;;4842206;29;20435;-71
2021/12/31 15:20:05;;;;;;;12.38;3.10;;;;;;;;;;4858462;23;20091;-72
2021/12/31 15:22:31;;;;;;;16.48;3.45;;;;;;;;;;4843036;29;20038;-69
2021/12/31 15:24:57;;;;;;;10.40;2.92;;;;;;;;;;4843171;29;20037;-71
2021/12/31 15:27:23;;;;;;;14.00;3.22;;;;;;;;;;4842854;29;20082;-71
2021/12/31 15:29:49;;;;;;;16.52;3.53;;;;;;;;;;4842857;29;20086;-71
2021/12/31 15:32:18;;;;;;;12.38;3.53;;;;;;;;;;4841331;29;20545;-72
2021/12/31 15:34:55;;;;;;;;;;;;;;;;;;;;;
2021/12/31 15:37:25;;;;;;;15.57;2.78;;;;;;;;;;4841693;29;20048;-72
2021/12/31 15:39:51;;;;;;;8.27;2.55;;;;;;;;;;4842820;29;20459;-72
2021/12/31 15:42:17;;;;;;;16.40;3.05;;;;;;;;;;4842999;29;20026;-74
2021/12/31 15:44:43;;;;;;;17.55;3.03;;;;;;;;;;4843024;29;20026;-70
2021/12/31 15:47:09;;;;;;;16.23;3.28;;;;;;;;;;4842498;29;20030;-72
2021/12/31 15:49:44;;;;;;;18.25;3.08;;;;;;;;;;4841352;29;20033;-72
2021/12/31 15:52:10;;;;;;;12.65;3.28;;;;;;;;;;4849489;24;20065;-71
2021/12/31 15:54:36;;;;;;;12.80;2.65;;;;;;;;;;4842124;29;20406;-66
2021/12/31 15:57:02;;;;;;;11.80;3.40;;;;;;;;;;4843398;29;20078;-75
2021/12/31 15:59:28;;;;;;;15.25;3.22;;;;;;;;;;4842511;29;20045;-75
2021/12/31 16:01:54;;;;;;;8.20;2.63;;;;;;;;;;4842675;29;20030;-73
2021/12/31 16:04:21;;;;;;;13.10;3.13;;;;;;;;;;4842666;29;20022;-73
2021/12/31 16:06:47;;;;;;;7.85;2.88;;;;;;;;;;4844877;23;20414;-73
2021/12/31 16:09:13;;;;;;;17.92;3.25;;;;;;;;;;4901259;24;20520;-76
2021/12/31 16:11:39;;;;;;;12.23;3.15;;;;;;;;;;4861161;29;20032;-67
2021/12/31 16:14:05;;;;;;;11.60;2.95;;;;;;;;;;4860626;29;20041;-65
2021/12/31 16:16:34;;;;;;;16.50;3.83;;;;;;;;;;4862516;29;20029;-68
2021/12/31 16:21:40;;;;;;;13.63;3.22;;;;;;;;;;4857897;23;20126;-75
2021/12/31 16:24:10;;;;;;;15.25;4.05;;;;;;;;;;4847606;29;20054;-70
2021/12/31 16:26:36;;;;;;;17.52;3.80;;;;;;;;;;4845261;29;20056;-75
2021/12/31 16:29:03;;;;;;;10.82;3.80;;;;;;;;;;4845091;29;20026;-74